createdAt,value
2023-02-24T00:00:32.188Z,7.33
2023-02-24T00:03:05.930Z,8.30
2023-02-24T00:05:39.201Z,7.47
2023-02-24T00:08:06.327Z,8.37
2023-02-24T00:10:33.005Z,9.32
2023-02-24T00:12:59.740Z,8.00
2023-02-24T00:15:26.529Z,8.10
2023-02-24T00:17:53.228Z,7.70
2023-02-24T00:20:20.192Z,8.43
2023-02-24T00:22:49.002Z,7.10
2023-02-24T00:25:15.856Z,7.80
2023-02-24T00:27:42.631Z,8.30
2023-02-24T00:30:11.945Z,8.93
2023-02-24T00:32:41.202Z,7.30
2023-02-24T00:35:12.957Z,8.17
2023-02-24T00:37:42.135Z,7.50
2023-02-24T00:40:12.254Z,8.10
2023-02-24T00:42:42.585Z,8.90
2023-02-24T00:45:10.356Z,8.63
2023-02-24T00:47:42.139Z,8.00
2023-02-24T00:50:14.087Z,7.53
2023-02-24T00:52:45.414Z,7.50
2023-02-24T00:55:13.977Z,7.83
2023-02-24T00:57:41.473Z,7.30
2023-02-24T01:00:13.564Z,7.30
2023-02-24T01:02:40.227Z,7.50
2023-02-24T01:05:09.480Z,7.63
2023-02-24T01:07:36.186Z,7.10
2023-02-24T01:10:08.445Z,7.23
2023-02-24T01:12:49.738Z,8.95
2023-02-24T01:15:19.999Z,7.57
2023-02-24T01:17:46.970Z,7.67
2023-02-24T01:20:19.121Z,7.13
2023-02-24T01:22:51.230Z,7.77
2023-02-24T01:25:20.461Z,7.50
2023-02-24T01:27:50.561Z,7.60
2023-02-24T01:30:20.647Z,7.23
2023-02-24T01:32:51.067Z,7.70
2023-02-24T01:35:18.024Z,7.23
2023-02-24T01:37:45.699Z,7.73
2023-02-24T01:40:20.699Z,8.40
2023-02-24T01:42:47.931Z,9.50
2023-02-24T01:45:18.635Z,7.73
2023-02-24T01:47:47.250Z,8.20
2023-02-24T01:50:16.078Z,7.67
2023-02-24T01:52:46.296Z,8.30
2023-02-24T01:55:28.922Z,7.93
2023-02-24T01:57:59.858Z,9.43
2023-02-24T02:00:38.115Z,8.07
2023-02-24T02:03:15.886Z,8.23
2023-02-24T02:05:43.025Z,8.07
2023-02-24T02:08:10.823Z,7.90
2023-02-24T02:10:39.412Z,8.10
2023-02-24T02:13:06.533Z,9.73
2023-02-24T02:15:45.053Z,8.87
2023-02-24T02:18:29.196Z,8.57
2023-02-24T02:21:25.781Z,8.00
2023-02-24T02:24:11.233Z,7.60
2023-02-24T02:26:43.547Z,7.73
2023-02-24T02:29:35.808Z,8.23
2023-02-24T02:33:01.792Z,7.70
2023-02-24T02:35:31.693Z,7.57
2023-02-24T02:38:04.318Z,8.33
2023-02-24T02:40:39.497Z,6.90
2023-02-24T02:43:25.800Z,8.43
2023-02-24T02:45:58.245Z,7.33
2023-02-24T02:48:48.095Z,7.27
2023-02-24T02:51:21.403Z,7.87
2023-02-24T02:54:01.757Z,7.70
2023-02-24T02:56:37.573Z,7.70
2023-02-24T02:59:05.359Z,7.83
2023-02-24T03:01:39.383Z,7.30
2023-02-24T03:04:09.707Z,7.90
2023-02-24T03:06:49.950Z,8.03
2023-02-24T03:09:29.363Z,7.53
2023-02-24T03:12:02.517Z,7.73
2023-02-24T03:14:37.475Z,8.55
2023-02-24T03:17:09.417Z,7.63
2023-02-24T03:19:39.759Z,7.80
2023-02-24T03:22:13.754Z,7.53
2023-02-24T03:24:42.233Z,8.17
2023-02-24T03:27:13.596Z,7.90
2023-02-24T03:30:16.139Z,7.82
2023-02-24T03:33:02.756Z,7.27
2023-02-24T03:35:31.122Z,7.13
2023-02-24T03:38:03.035Z,6.83
2023-02-24T03:40:36.191Z,7.30
2023-02-24T03:43:28.685Z,7.53
2023-02-24T03:45:56.222Z,7.77
2023-02-24T03:48:25.052Z,7.70
2023-02-24T03:50:54.856Z,7.13
2023-02-24T03:53:22.442Z,7.53
2023-02-24T03:55:58.800Z,8.27
2023-02-24T03:58:42.966Z,7.73
2023-02-24T04:01:19.181Z,6.70
2023-02-24T04:04:14.753Z,7.47
2023-02-24T04:07:10.601Z,6.63
2023-02-24T04:10:12.633Z,6.87
2023-02-24T04:12:49.835Z,7.63
2023-02-24T04:15:45.573Z,6.90
2023-02-24T04:18:41.748Z,8.07
2023-02-24T04:21:10.660Z,6.97
2023-02-24T04:23:43.211Z,7.10
2023-02-24T04:26:13.796Z,7.07
2023-02-24T04:28:42.159Z,7.43
2023-02-24T04:31:17.364Z,6.90
2023-02-24T04:33:50.272Z,8.47
2023-02-24T04:36:21.242Z,7.27
2023-02-24T04:38:48.623Z,7.87
2023-02-24T04:41:21.215Z,7.53
2023-02-24T04:43:51.861Z,7.33
2023-02-24T04:46:19.689Z,7.73
2023-02-24T04:48:46.526Z,8.02
2023-02-24T04:51:13.836Z,7.73
2023-02-24T04:53:40.757Z,7.83
2023-02-24T04:56:09.033Z,7.50
2023-02-24T04:58:42.637Z,7.37
2023-02-24T05:01:12.503Z,7.10
2023-02-24T05:03:43.264Z,7.50
2023-02-24T05:06:19.590Z,7.83
2023-02-24T05:08:48.485Z,8.47
2023-02-24T05:11:16.625Z,7.43
2023-02-24T05:13:46.219Z,7.63
2023-02-24T05:16:17.773Z,7.90
2023-02-24T05:18:44.813Z,7.13
2023-02-24T05:21:33.537Z,8.60
2023-02-24T05:24:06.512Z,7.50
2023-02-24T05:26:35.964Z,8.30
2023-02-24T05:29:07.985Z,7.70
2023-02-24T05:31:35.421Z,7.03
2023-02-24T05:34:07.599Z,8.00
2023-02-24T05:36:39.464Z,7.77
2023-02-24T05:39:12.672Z,6.80
2023-02-24T05:41:42.066Z,7.97
2023-02-24T05:44:15.615Z,7.47
2023-02-24T05:46:44.935Z,7.97
2023-02-24T05:49:23.320Z,8.20
2023-02-24T05:51:55.019Z,8.70
2023-02-24T05:54:23.781Z,8.10
2023-02-24T05:56:57.012Z,8.47
2023-02-24T05:59:24.222Z,8.30
2023-02-24T06:01:54.081Z,7.77
2023-02-24T06:04:39.297Z,8.33
2023-02-24T06:07:07.125Z,9.50
2023-02-24T06:09:34.630Z,8.57
2023-02-24T06:12:02.524Z,8.50
2023-02-24T06:14:29.361Z,8.13
2023-02-24T06:17:00.804Z,8.30
2023-02-24T06:19:43.947Z,8.60
2023-02-24T06:22:16.007Z,8.88
2023-02-24T06:24:44.919Z,8.13
2023-02-24T06:27:18.696Z,8.43
2023-02-24T06:29:53.793Z,8.87
2023-02-24T06:32:25.621Z,9.40
2023-02-24T06:34:59.297Z,9.13
2023-02-24T06:37:26.028Z,9.13
2023-02-24T06:39:55.221Z,10.03
2023-02-24T06:42:22.208Z,9.03
2023-02-24T06:44:51.413Z,9.53
2023-02-24T06:47:18.210Z,9.57
2023-02-24T06:49:50.113Z,9.67
2023-02-24T06:52:19.059Z,9.43
2023-02-24T06:54:52.365Z,11.25
2023-02-24T06:57:20.316Z,9.47
2023-02-24T06:59:48.800Z,10.17
2023-02-24T07:02:17.536Z,9.83
2023-02-24T07:04:44.368Z,10.23
2023-02-24T07:07:14.398Z,9.63
2023-02-24T07:09:45.806Z,11.07
2023-02-24T07:12:13.311Z,10.63
2023-02-24T07:14:40.380Z,10.43
2023-02-24T07:17:08.373Z,10.20
2023-02-24T07:19:35.137Z,9.83
2023-02-24T07:22:05.175Z,10.70
2023-02-24T07:24:39.833Z,10.63
2023-02-24T07:27:09.395Z,11.97
2023-02-24T07:29:37.778Z,11.00
2023-02-24T07:32:09.950Z,10.47
2023-02-24T07:34:42.138Z,10.80
2023-02-24T07:37:10.405Z,10.97
2023-02-24T07:39:39.340Z,11.23
2023-02-24T07:42:07.967Z,10.80
2023-02-24T07:44:34.660Z,12.13
2023-02-24T07:47:07.520Z,11.27
2023-02-24T07:49:34.531Z,11.40
2023-02-24T07:52:03.431Z,10.80
2023-02-24T07:54:30.442Z,10.63
2023-02-24T07:56:59.171Z,12.20
2023-02-24T07:59:28.631Z,11.53
2023-02-24T08:01:56.278Z,10.60
2023-02-24T08:04:33.770Z,10.97
2023-02-24T08:07:02.826Z,11.30
2023-02-24T08:09:46.659Z,10.03
2023-02-24T08:12:18.736Z,11.57
2023-02-24T08:14:50.915Z,10.77
2023-02-24T08:17:28.407Z,10.57
2023-02-24T08:20:12.761Z,10.53
2023-02-24T08:22:43.953Z,11.00
2023-02-24T08:25:18.752Z,10.10
2023-02-24T08:28:06.465Z,11.30
2023-02-24T08:30:39.504Z,9.77
2023-02-24T08:33:11.203Z,10.07
2023-02-24T08:35:45.104Z,8.77
2023-02-24T08:38:17.952Z,9.70
2023-02-24T08:40:50.826Z,9.73
2023-02-24T08:43:33.839Z,10.50
2023-02-24T08:46:26.171Z,9.23
2023-02-24T08:49:01.738Z,9.33
2023-02-24T08:51:30.896Z,8.83
2023-02-24T08:54:11.020Z,9.47
2023-02-24T08:56:43.391Z,8.37
2023-02-24T08:59:29.077Z,8.03
2023-02-24T09:02:17.618Z,7.87
2023-02-24T09:04:51.314Z,7.43
2023-02-24T09:07:35.422Z,7.80
2023-02-24T09:10:11.414Z,6.77
2023-02-24T09:12:41.273Z,7.80
2023-02-24T09:15:09.685Z,6.67
2023-02-24T09:17:45.383Z,6.30
2023-02-24T09:20:36.152Z,5.77
2023-02-24T09:23:04.159Z,6.70
2023-02-24T09:25:43.612Z,5.97
2023-02-24T09:28:25.690Z,6.27
2023-02-24T09:31:04.911Z,5.80
2023-02-24T09:33:39.220Z,5.50
2023-02-24T09:36:20.445Z,4.87
2023-02-24T09:39:02.258Z,4.60
2023-02-24T09:42:17.934Z,4.97
2023-02-24T09:44:55.829Z,4.60
2023-02-24T09:47:39.546Z,4.90
2023-02-24T09:50:55.039Z,5.10
2023-02-24T09:53:14.052Z,4.50
2023-02-24T09:55:46.161Z,2.97
2023-02-24T09:58:41.720Z,4.25
2023-02-24T10:01:22.602Z,3.73
2023-02-24T10:04:21.229Z,3.87
2023-02-24T10:07:05.077Z,4.33
2023-02-24T10:09:41.274Z,4.33
2023-02-24T10:12:17.355Z,4.17
2023-02-24T10:14:53.006Z,3.80
2023-02-24T10:17:39.321Z,3.83
2023-02-24T10:20:31.178Z,4.40
2023-02-24T10:22:58.453Z,4.90
2023-02-24T10:25:43.887Z,4.00
2023-02-24T10:28:35.922Z,4.40
2023-02-24T10:31:30.501Z,4.70
2023-02-24T10:34:08.438Z,4.50
2023-02-24T10:36:41.803Z,4.37
2023-02-24T10:39:25.517Z,4.33
2023-02-24T10:42:16.488Z,4.10
2023-02-24T10:45:17.277Z,4.40
2023-02-24T10:47:56.325Z,3.83
2023-02-24T10:50:55.066Z,3.90
2023-02-24T10:53:28.630Z,3.80
2023-02-24T10:56:22.716Z,4.23
2023-02-24T10:59:20.422Z,4.40
2023-02-24T11:01:59.610Z,4.10
2023-02-24T11:04:55.546Z,4.13
2023-02-24T11:07:43.778Z,4.40
2023-02-24T11:10:25.923Z,5.10
2023-02-24T11:13:15.306Z,4.97
2023-02-24T11:16:05.810Z,4.90
2023-02-24T11:18:33.558Z,5.30
2023-02-24T11:21:06.944Z,5.90
2023-02-24T11:23:42.382Z,4.67
2023-02-24T11:26:28.258Z,5.20
2023-02-24T11:29:04.152Z,5.33
2023-02-24T11:32:02.067Z,5.00
2023-02-24T11:35:13.774Z,5.23
2023-02-24T11:37:48.703Z,5.07
2023-02-24T11:40:25.596Z,4.37
2023-02-24T11:43:10.754Z,5.07
2023-02-24T11:45:52.375Z,4.70
2023-02-24T11:48:25.224Z,4.33
2023-02-24T11:51:12.147Z,4.20
2023-02-24T11:53:57.150Z,4.90
2023-02-24T11:56:29.399Z,5.00
2023-02-24T11:59:02.352Z,4.77
2023-02-24T12:01:52.276Z,4.67
2023-02-24T12:04:39.664Z,4.90
2023-02-24T12:07:09.354Z,4.30
2023-02-24T12:10:16.690Z,4.30
2023-02-24T12:13:11.302Z,4.60
2023-02-24T12:15:47.027Z,4.53
2023-02-24T12:18:19.975Z,4.17
2023-02-24T12:20:59.873Z,4.23
2023-02-24T12:23:39.787Z,4.45
2023-02-24T12:26:30.709Z,4.27
2023-02-24T12:29:00.343Z,4.23
2023-02-24T12:31:39.021Z,4.93
2023-02-24T12:34:32.880Z,4.63
2023-02-24T12:37:19.774Z,4.73
2023-02-24T12:40:15.114Z,4.20
2023-02-24T12:43:06.208Z,4.80
2023-02-24T12:45:56.623Z,4.10
2023-02-24T12:48:45.102Z,4.40
2023-02-24T12:51:23.297Z,4.50
2023-02-24T12:54:16.364Z,4.47
2023-02-24T12:56:54.481Z,4.60
2023-02-24T12:59:28.760Z,4.40
2023-02-24T13:02:06.128Z,4.07
2023-02-24T13:05:10.636Z,3.93
2023-02-24T13:07:59.934Z,4.70
2023-02-24T13:10:31.907Z,3.93
2023-02-24T13:13:26.987Z,4.33
2023-02-24T13:15:58.574Z,4.30
2023-02-24T13:18:34.699Z,4.35
2023-02-24T13:21:31.166Z,4.43
2023-02-24T13:24:01.120Z,4.40
2023-02-24T13:26:31.118Z,3.90
2023-02-24T13:29:11.760Z,3.77
2023-02-24T13:31:46.495Z,4.10
2023-02-24T13:34:45.134Z,4.90
2023-02-24T13:37:11.840Z,4.03
2023-02-24T13:39:44.311Z,4.37
2023-02-24T13:42:24.648Z,4.50
2023-02-24T13:45:04.325Z,3.83
2023-02-24T13:48:20.655Z,4.45
2023-02-24T13:51:02.376Z,4.03
2023-02-24T13:53:35.336Z,3.90
2023-02-24T13:56:34.421Z,4.30
2023-02-24T13:59:38.802Z,3.90
2023-02-24T14:02:26.688Z,3.80
2023-02-24T14:04:57.348Z,4.10
2023-02-24T14:07:35.404Z,4.13
2023-02-24T14:10:19.331Z,3.93
2023-02-24T14:12:47.812Z,3.83
2023-02-24T14:15:22.814Z,4.40
2023-02-24T14:17:59.642Z,3.87
2023-02-24T14:20:28.091Z,4.20
2023-02-24T14:22:58.800Z,4.00
2023-02-24T14:25:34.337Z,3.83
2023-02-24T14:28:01.819Z,4.00
2023-02-24T14:30:37.348Z,3.37
2023-02-24T14:33:06.884Z,4.33
2023-02-24T14:35:35.844Z,3.37
2023-02-24T14:38:03.434Z,3.83
2023-02-24T14:40:30.530Z,3.37
2023-02-24T14:43:00.212Z,3.50
2023-02-24T14:45:29.418Z,3.50
2023-02-24T14:47:59.570Z,4.53
2023-02-24T14:50:38.096Z,4.07
2023-02-24T14:53:15.025Z,4.43
2023-02-24T14:55:46.446Z,3.93
2023-02-24T14:58:57.373Z,4.07
2023-02-24T15:01:47.442Z,3.90
2023-02-24T15:04:36.881Z,4.40
2023-02-24T15:07:07.158Z,3.90
2023-02-24T15:09:40.912Z,4.37
2023-02-24T15:12:36.072Z,5.35
2023-02-24T15:15:17.751Z,4.40
2023-02-24T15:17:47.447Z,4.40
2023-02-24T15:20:48.057Z,4.90
2023-02-24T15:23:27.954Z,4.17
2023-02-24T15:25:56.868Z,4.85
2023-02-24T15:28:33.330Z,4.90
2023-02-24T15:31:03.392Z,4.87
2023-02-24T15:33:38.179Z,4.43
2023-02-24T15:36:17.894Z,5.17
2023-02-24T15:38:46.119Z,4.78
2023-02-24T15:41:13.847Z,4.70
2023-02-24T15:43:56.400Z,4.87
2023-02-24T15:46:30.228Z,4.47
2023-02-24T15:49:01.673Z,4.47
2023-02-24T15:51:39.173Z,4.57
2023-02-24T15:54:14.915Z,4.47
2023-02-24T15:56:42.888Z,4.53
2023-02-24T15:59:14.759Z,4.83
2023-02-24T16:01:46.070Z,4.30
2023-02-24T16:04:12.873Z,4.80
2023-02-24T16:06:42.175Z,4.72
2023-02-24T16:09:14.217Z,5.07
2023-02-24T16:11:44.087Z,4.77
2023-02-24T16:14:20.112Z,5.03
2023-02-24T16:16:46.982Z,4.97
2023-02-24T16:19:16.771Z,4.87
2023-02-24T16:21:43.762Z,5.13
2023-02-24T16:24:10.678Z,5.37
2023-02-24T16:26:39.788Z,4.77
2023-02-24T16:29:11.691Z,4.93
2023-02-24T16:31:41.945Z,5.10
2023-02-24T16:34:12.139Z,4.73
2023-02-24T16:36:38.793Z,5.60
2023-02-24T16:39:05.524Z,5.07
2023-02-24T16:41:34.408Z,4.77
2023-02-24T16:44:01.081Z,5.00
2023-02-24T16:46:34.877Z,5.40
2023-02-24T16:49:08.384Z,5.27
2023-02-24T16:51:35.586Z,5.97
2023-02-24T16:54:04.696Z,5.43
2023-02-24T16:56:31.369Z,5.47
2023-02-24T16:59:00.470Z,5.57
2023-02-24T17:01:29.901Z,6.23
2023-02-24T17:03:59.155Z,5.77
2023-02-24T17:06:29.198Z,6.70
2023-02-24T17:09:00.360Z,5.93
2023-02-24T17:11:29.955Z,6.00
2023-02-24T17:13:56.702Z,6.43
2023-02-24T17:16:23.983Z,6.30
2023-02-24T17:18:50.915Z,6.50
2023-02-24T17:21:18.100Z,6.80
2023-02-24T17:23:47.097Z,5.57
2023-02-24T17:26:15.661Z,5.47
2023-02-24T17:28:42.884Z,5.90
2023-02-24T17:31:12.428Z,5.85
2023-02-24T17:33:39.218Z,6.13
2023-02-24T17:36:08.850Z,5.97
2023-02-24T17:38:35.839Z,5.67
2023-02-24T17:41:07.457Z,5.10
2023-02-24T17:43:34.217Z,5.60
2023-02-24T17:46:05.092Z,5.50
2023-02-24T17:48:35.683Z,5.40
2023-02-24T17:51:04.758Z,5.63
2023-02-24T17:53:32.184Z,5.10
2023-02-24T17:56:06.860Z,5.23
2023-02-24T17:58:33.975Z,5.13
2023-02-24T18:01:02.307Z,5.60
2023-02-24T18:03:32.634Z,5.70
2023-02-24T18:06:08.392Z,5.20
2023-02-24T18:08:37.201Z,5.60
2023-02-24T18:11:05.008Z,5.30
2023-02-24T18:13:32.677Z,4.77
2023-02-24T18:16:02.512Z,5.72
2023-02-24T18:18:30.319Z,4.57
2023-02-24T18:21:05.253Z,5.07
2023-02-24T18:23:35.436Z,4.37
2023-02-24T18:26:04.190Z,4.93
2023-02-24T18:28:31.470Z,4.40
2023-02-24T18:31:03.206Z,4.60
2023-02-24T18:33:32.700Z,4.57
2023-02-24T18:36:00.666Z,4.60
2023-02-24T18:38:28.580Z,4.27
2023-02-24T18:41:08.275Z,3.93
2023-02-24T18:43:35.667Z,4.00
2023-02-24T18:46:06.443Z,3.97
2023-02-24T18:48:36.048Z,4.23
2023-02-24T18:51:13.168Z,4.47
2023-02-24T18:53:39.908Z,4.47
2023-02-24T18:56:18.111Z,3.80
2023-02-24T18:58:45.788Z,3.80
2023-02-24T19:01:23.127Z,3.47
2023-02-24T19:03:51.292Z,3.87
2023-02-24T19:06:20.724Z,2.63
2023-02-24T19:08:57.153Z,3.17
2023-02-24T19:11:24.003Z,3.70
2023-02-24T19:13:53.294Z,3.50
2023-02-24T19:16:20.463Z,3.50
2023-02-24T19:18:56.931Z,3.20
2023-02-24T19:21:25.254Z,3.03
2023-02-24T19:23:54.667Z,2.93
2023-02-24T19:26:24.111Z,3.10
2023-02-24T19:28:51.554Z,3.03
2023-02-24T19:31:21.032Z,3.30
2023-02-24T19:33:56.153Z,3.20
2023-02-24T19:36:27.853Z,2.80
2023-02-24T19:38:55.089Z,3.03
2023-02-24T19:41:22.234Z,3.23
2023-02-24T19:43:51.106Z,3.10
2023-02-24T19:46:18.622Z,3.70
2023-02-24T19:48:45.997Z,3.43
2023-02-24T19:51:19.102Z,3.00
2023-02-24T19:53:46.250Z,3.87
2023-02-24T19:56:13.232Z,4.07
2023-02-24T19:58:40.020Z,3.53
2023-02-24T20:01:11.789Z,3.57
2023-02-24T20:03:40.522Z,3.58
2023-02-24T20:06:18.283Z,3.27
2023-02-24T20:08:45.099Z,3.10
2023-02-24T20:11:11.922Z,3.07
2023-02-24T20:13:38.560Z,3.23
2023-02-24T20:16:12.890Z,3.57
2023-02-24T20:18:43.271Z,3.47
2023-02-24T20:21:13.654Z,3.80
2023-02-24T20:23:40.994Z,3.40
2023-02-24T20:26:14.159Z,4.20
2023-02-24T20:28:41.130Z,4.13
2023-02-24T20:31:11.240Z,4.17
2023-02-24T20:33:42.167Z,4.70
2023-02-24T20:36:17.372Z,4.80
2023-02-24T20:38:44.626Z,4.20
2023-02-24T20:41:11.842Z,4.17
2023-02-24T20:43:38.771Z,4.30
2023-02-24T20:46:23.983Z,4.40
2023-02-24T20:48:52.178Z,4.75
2023-02-24T20:51:18.962Z,4.33
2023-02-24T20:53:56.599Z,4.40
2023-02-24T20:56:28.710Z,3.97
2023-02-24T20:59:08.309Z,4.10
2023-02-24T21:01:35.926Z,4.20
2023-02-24T21:04:05.883Z,3.50
2023-02-24T21:06:37.610Z,4.50
2023-02-24T21:09:05.382Z,3.67
2023-02-24T21:11:32.486Z,3.60
2023-02-24T21:13:59.238Z,4.17
2023-02-24T21:16:28.799Z,4.10
2023-02-24T21:18:57.862Z,3.90
2023-02-24T21:21:27.329Z,4.10
2023-02-24T21:23:56.702Z,3.80
2023-02-24T21:26:26.707Z,4.13
2023-02-24T21:28:57.478Z,4.33
2023-02-24T21:31:25.193Z,3.70
2023-02-24T21:33:55.496Z,3.57
2023-02-24T21:36:25.697Z,3.80
2023-02-24T21:38:53.550Z,4.47
2023-02-24T21:41:20.812Z,4.00
2023-02-24T21:43:48.369Z,4.00
2023-02-24T21:46:16.013Z,3.93
2023-02-24T21:48:43.047Z,3.63
2023-02-24T21:51:13.594Z,4.00
2023-02-24T21:53:43.489Z,4.50
2023-02-24T21:56:18.415Z,4.83
2023-02-24T21:58:50.434Z,3.90
2023-02-24T22:01:29.658Z,3.77
2023-02-24T22:04:01.262Z,4.57
2023-02-24T22:06:31.422Z,5.07
2023-02-24T22:08:58.709Z,4.63
2023-02-24T22:11:37.417Z,5.40
2023-02-24T22:14:06.668Z,5.07
2023-02-24T22:16:33.483Z,5.13
2023-02-24T22:19:05.806Z,5.10
2023-02-24T22:21:33.173Z,5.40
2023-02-24T22:24:02.437Z,5.30
2023-02-24T22:26:30.835Z,5.63
2023-02-24T22:28:58.016Z,5.60
2023-02-24T22:31:30.378Z,4.60
2023-02-24T22:33:59.751Z,5.20
2023-02-24T22:36:29.650Z,4.03
2023-02-24T22:38:57.581Z,4.70
2023-02-24T22:41:27.409Z,4.60
2023-02-24T22:43:54.536Z,4.57
2023-02-24T22:46:25.317Z,4.83
2023-02-24T22:48:52.204Z,4.47
2023-02-24T22:51:19.685Z,4.60
2023-02-24T22:53:49.376Z,4.20
2023-02-24T22:56:27.742Z,4.90
2023-02-24T22:58:57.365Z,4.33
2023-02-24T23:01:28.100Z,4.40
2023-02-24T23:04:01.589Z,3.90
2023-02-24T23:06:29.450Z,3.77
2023-02-24T23:09:00.290Z,3.87
2023-02-24T23:11:32.558Z,4.20
2023-02-24T23:14:02.053Z,3.97
2023-02-24T23:16:31.666Z,3.40
2023-02-24T23:19:04.191Z,3.30
2023-02-24T23:21:45.154Z,3.93
2023-02-24T23:24:15.464Z,3.40
2023-02-24T23:26:51.212Z,3.67
2023-02-24T23:29:18.610Z,3.50
2023-02-24T23:31:46.355Z,3.27
2023-02-24T23:34:16.287Z,2.73
2023-02-24T23:36:46.911Z,3.20
2023-02-24T23:39:15.942Z,2.80
2023-02-24T23:41:43.028Z,2.70
2023-02-24T23:44:10.081Z,2.77
2023-02-24T23:46:41.621Z,2.57
2023-02-24T23:49:08.436Z,2.67
2023-02-24T23:51:47.549Z,2.57
2023-02-24T23:54:16.165Z,2.67
2023-02-24T23:56:42.917Z,2.47
2023-02-24T23:59:11.962Z,2.30
